createdAt,value
2022-12-14T00:02:02.744Z,-1.05
2022-12-14T00:04:31.412Z,-1.05
2022-12-14T00:07:01.020Z,-1.05
2022-12-14T00:09:29.256Z,-1.07
2022-12-14T00:11:57.496Z,-1.09
2022-12-14T00:14:25.979Z,-1.11
2022-12-14T00:16:54.200Z,-1.11
2022-12-14T00:19:22.524Z,-1.14
2022-12-14T00:21:50.740Z,-1.15
2022-12-14T00:24:20.588Z,-1.19
2022-12-14T00:26:48.792Z,-1.22
2022-12-14T00:29:17.041Z,-1.22
2022-12-14T00:31:48.842Z,-1.24
2022-12-14T00:34:17.726Z,-1.24
2022-12-14T00:36:45.951Z,-1.30
2022-12-14T00:39:14.221Z,-1.32
2022-12-14T00:41:44.331Z,-1.35
2022-12-14T00:44:12.563Z,-1.40
2022-12-14T00:46:40.946Z,-1.42
2022-12-14T00:49:09.259Z,-1.43
2022-12-14T00:51:37.652Z,-1.43
2022-12-14T00:54:06.465Z,-1.45
2022-12-14T00:56:34.776Z,-1.43
2022-12-14T00:59:04.496Z,-1.42
2022-12-14T01:01:32.920Z,-1.44
2022-12-14T01:04:15.178Z,-1.44
2022-12-14T01:06:44.077Z,-1.42
2022-12-14T01:09:12.523Z,-1.42
2022-12-14T01:11:41.201Z,-1.40
2022-12-14T01:14:12.297Z,-1.40
2022-12-14T01:16:40.816Z,-1.38
2022-12-14T01:19:09.329Z,-1.36
2022-12-14T01:21:37.647Z,-1.37
2022-12-14T01:24:07.177Z,-1.38
2022-12-14T01:26:40.925Z,-1.38
2022-12-14T01:29:12.985Z,-1.39
2022-12-14T01:31:41.366Z,-1.36
2022-12-14T01:34:10.971Z,-1.34
2022-12-14T01:36:39.972Z,-1.33
2022-12-14T01:39:13.743Z,-1.31
2022-12-14T01:41:44.594Z,-1.31
2022-12-14T01:44:55.457Z,-1.32
2022-12-14T01:47:30.728Z,-1.34
2022-12-14T01:50:04.817Z,-1.35
2022-12-14T01:52:39.645Z,-1.35
2022-12-14T01:55:12.634Z,-1.35
2022-12-14T01:57:46.421Z,-1.35
2022-12-14T02:00:17.377Z,-1.35
2022-12-14T02:02:51.000Z,-1.33
2022-12-14T02:05:22.218Z,-1.35
2022-12-14T02:07:53.296Z,-1.36
2022-12-14T02:10:23.873Z,-1.37
2022-12-14T02:13:00.647Z,-1.40
2022-12-14T02:15:31.689Z,-1.38
2022-12-14T02:18:00.615Z,-1.38
2022-12-14T02:20:36.453Z,-1.37
2022-12-14T02:23:38.985Z,-1.38
2022-12-14T02:26:47.952Z,-1.39
2022-12-14T02:29:49.129Z,-1.41
2022-12-14T02:32:43.370Z,-1.43
2022-12-14T02:35:20.066Z,-1.40
2022-12-14T02:37:55.257Z,-1.40
2022-12-14T02:40:31.092Z,-1.36
2022-12-14T02:43:13.141Z,-1.34
2022-12-14T02:45:47.919Z,-1.32
2022-12-14T02:48:20.578Z,-1.29
2022-12-14T02:50:58.414Z,-1.26
2022-12-14T02:53:32.541Z,-1.28
2022-12-14T02:56:07.450Z,-1.27
2022-12-14T02:58:40.372Z,-1.24
2022-12-14T03:01:14.821Z,-1.22
2022-12-14T03:03:44.041Z,-1.20
2022-12-14T03:06:26.155Z,-1.17
2022-12-14T03:09:01.057Z,-1.17
2022-12-14T03:11:36.762Z,-1.16
2022-12-14T03:14:11.813Z,-1.11
2022-12-14T03:16:44.580Z,-1.11
2022-12-14T03:19:19.381Z,-1.09
2022-12-14T03:21:51.616Z,-1.09
2022-12-14T03:24:29.081Z,-1.05
2022-12-14T03:27:02.736Z,-1.00
2022-12-14T03:29:38.864Z,-1.00
2022-12-14T03:32:12.908Z,-0.97
2022-12-14T03:34:47.380Z,-0.95
2022-12-14T03:37:19.776Z,-0.95
2022-12-14T03:39:49.158Z,-0.97
2022-12-14T03:42:24.740Z,-0.94
2022-12-14T03:45:03.345Z,-0.93
2022-12-14T03:47:59.708Z,-0.91
2022-12-14T03:50:37.110Z,-0.89
2022-12-14T03:53:11.141Z,-0.87
2022-12-14T03:55:49.266Z,-0.85
2022-12-14T03:58:37.613Z,-0.82
2022-12-14T04:01:12.762Z,-0.81
2022-12-14T04:03:50.334Z,-0.80
2022-12-14T04:06:29.427Z,-0.78
2022-12-14T04:09:08.826Z,-0.78
2022-12-14T04:12:01.426Z,-0.76
2022-12-14T04:14:53.838Z,-0.74
2022-12-14T04:17:51.035Z,-0.75
2022-12-14T04:20:25.577Z,-0.74
2022-12-14T04:23:00.000Z,-0.72
2022-12-14T04:25:53.543Z,-0.68
2022-12-14T04:28:42.572Z,-0.67
2022-12-14T04:31:13.682Z,-0.68
2022-12-14T04:33:51.219Z,-0.68
2022-12-14T04:36:27.014Z,-0.67
2022-12-14T04:39:01.396Z,-0.64
2022-12-14T04:41:34.422Z,-0.62
2022-12-14T04:44:09.932Z,-0.61
2022-12-14T04:46:40.847Z,-0.58
2022-12-14T04:49:18.318Z,-0.57
2022-12-14T04:51:58.226Z,-0.53
2022-12-14T04:54:35.733Z,-0.52
2022-12-14T04:57:17.384Z,-0.49
2022-12-14T04:59:48.240Z,-0.46
2022-12-14T05:02:26.868Z,-0.43
2022-12-14T05:05:08.930Z,-0.41
2022-12-14T05:07:49.548Z,-0.40
2022-12-14T05:10:24.272Z,-0.38
2022-12-14T05:13:01.994Z,-0.36
2022-12-14T05:15:36.358Z,-0.33
2022-12-14T05:18:05.936Z,-0.30
2022-12-14T05:20:34.264Z,-0.29
2022-12-14T05:23:03.929Z,-0.25
2022-12-14T05:25:32.399Z,-0.25
2022-12-14T05:28:00.662Z,-0.22
2022-12-14T05:30:28.961Z,-0.21
2022-12-14T05:32:57.440Z,-0.18
2022-12-14T05:35:25.811Z,-0.19
2022-12-14T05:37:54.055Z,-0.15
2022-12-14T05:40:23.721Z,-0.14
2022-12-14T05:42:55.671Z,-0.13
2022-12-14T05:45:24.413Z,-0.14
2022-12-14T05:47:52.636Z,-0.10
2022-12-14T05:50:20.862Z,-0.10
2022-12-14T05:52:49.096Z,-0.10
2022-12-14T05:55:18.249Z,-0.09
2022-12-14T05:57:47.867Z,-0.08
2022-12-14T06:00:17.235Z,-0.09
2022-12-14T06:02:45.521Z,-0.10
2022-12-14T06:05:13.825Z,-0.09
2022-12-14T06:07:42.060Z,-0.09
2022-12-14T06:10:11.148Z,-0.11
2022-12-14T06:12:39.502Z,-0.10
2022-12-14T06:15:10.359Z,-0.09
2022-12-14T06:17:38.614Z,-0.09
2022-12-14T06:20:08.548Z,-0.08
2022-12-14T06:22:36.767Z,-0.12
2022-12-14T06:25:05.552Z,-0.12
2022-12-14T06:27:33.873Z,-0.13
2022-12-14T06:30:02.249Z,-0.13
2022-12-14T06:32:32.270Z,-0.14
2022-12-14T06:35:00.516Z,-0.16
2022-12-14T06:37:28.753Z,-0.16
2022-12-14T06:39:57.006Z,-0.15
2022-12-14T06:42:25.283Z,-0.22
2022-12-14T06:44:53.520Z,-0.16
2022-12-14T06:47:21.786Z,-0.19
2022-12-14T06:49:51.642Z,-0.21
2022-12-14T06:52:26.541Z,-0.17
2022-12-14T06:54:55.191Z,-0.18
2022-12-14T06:57:23.557Z,-0.17
2022-12-14T06:59:52.085Z,-0.18
2022-12-14T07:02:20.809Z,-0.16
2022-12-14T07:04:50.684Z,-0.16
2022-12-14T07:07:18.955Z,-0.18
2022-12-14T07:09:47.241Z,-0.17
2022-12-14T07:12:15.518Z,-0.16
2022-12-14T07:14:43.777Z,-0.17
2022-12-14T07:17:12.131Z,-0.14
2022-12-14T07:19:40.365Z,-0.12
2022-12-14T07:22:09.953Z,-0.14
2022-12-14T07:24:38.357Z,-0.09
2022-12-14T07:27:06.753Z,-0.06
2022-12-14T07:29:35.231Z,-0.05
2022-12-14T07:32:03.618Z,-0.02
2022-12-14T07:34:32.083Z,-0.00
2022-12-14T07:37:00.395Z,-0.02
2022-12-14T07:39:30.247Z,0.01
2022-12-14T07:41:58.467Z,-0.01
2022-12-14T07:44:26.726Z,-0.00
2022-12-14T07:46:55.378Z,0.03
2022-12-14T07:49:23.662Z,0.05
2022-12-14T07:51:52.997Z,0.08
2022-12-14T07:54:21.533Z,0.12
2022-12-14T07:56:51.170Z,0.12
2022-12-14T07:59:19.563Z,0.14
2022-12-14T08:01:47.944Z,0.15
2022-12-14T08:04:19.267Z,0.19
2022-12-14T08:06:48.822Z,0.19
2022-12-14T08:09:20.127Z,0.24
2022-12-14T08:11:49.967Z,0.26
2022-12-14T08:14:20.100Z,0.26
2022-12-14T08:16:50.675Z,0.30
2022-12-14T08:19:20.170Z,0.31
2022-12-14T08:21:48.616Z,0.33
2022-12-14T08:24:17.847Z,0.34
2022-12-14T08:26:49.027Z,0.35
2022-12-14T08:29:19.905Z,0.36
2022-12-14T08:31:48.388Z,0.39
2022-12-14T08:34:22.047Z,0.43
2022-12-14T08:36:50.965Z,0.44
2022-12-14T08:39:19.260Z,0.45
2022-12-14T08:41:47.574Z,0.48
2022-12-14T08:44:18.134Z,0.46
2022-12-14T08:46:48.007Z,0.51
2022-12-14T08:49:16.560Z,0.52
2022-12-14T08:51:44.859Z,0.55
2022-12-14T08:54:13.178Z,0.59
2022-12-14T08:56:41.516Z,0.60
2022-12-14T08:59:24.484Z,0.61
2022-12-14T09:01:59.965Z,0.63
2022-12-14T09:04:28.570Z,0.63
2022-12-14T09:06:57.521Z,0.65
2022-12-14T09:09:25.917Z,0.65
2022-12-14T09:11:54.192Z,0.67
2022-12-14T09:14:22.553Z,0.65
2022-12-14T09:16:50.825Z,0.64
2022-12-14T09:19:20.554Z,0.64
2022-12-14T09:21:48.830Z,0.66
2022-12-14T09:24:17.093Z,0.71
2022-12-14T09:26:47.015Z,0.74
2022-12-14T09:29:17.036Z,0.75
2022-12-14T09:31:45.985Z,0.78
2022-12-14T09:34:14.393Z,0.78
2022-12-14T09:36:44.036Z,0.79
2022-12-14T09:39:14.924Z,0.79
2022-12-14T09:42:00.533Z,0.83
2022-12-14T09:44:49.812Z,0.83
2022-12-14T09:47:22.275Z,0.84
2022-12-14T09:49:55.807Z,0.87
2022-12-14T09:52:35.677Z,0.87
2022-12-14T09:55:08.721Z,0.87
2022-12-14T09:57:41.083Z,0.88
2022-12-14T10:00:18.141Z,0.88
2022-12-14T10:03:17.056Z,0.90
2022-12-14T10:06:19.034Z,0.89
2022-12-14T10:08:55.985Z,0.87
2022-12-14T10:11:33.405Z,0.84
2022-12-14T10:14:17.080Z,0.85
2022-12-14T10:16:55.725Z,0.88
2022-12-14T10:19:39.284Z,0.87
2022-12-14T10:22:14.038Z,0.90
2022-12-14T10:24:46.474Z,0.92
2022-12-14T10:27:23.535Z,0.96
2022-12-14T10:30:00.414Z,0.99
2022-12-14T10:32:34.769Z,1.01
2022-12-14T10:35:14.981Z,1.03
2022-12-14T10:37:46.413Z,1.10
2022-12-14T10:40:33.532Z,1.15
2022-12-14T10:43:24.840Z,1.17
2022-12-14T10:46:01.074Z,1.19
2022-12-14T10:48:40.974Z,1.25
2022-12-14T10:51:15.375Z,1.30
2022-12-14T10:53:51.770Z,1.33
2022-12-14T10:56:27.665Z,1.40
2022-12-14T10:59:26.310Z,1.42
2022-12-14T11:02:02.378Z,1.42
2022-12-14T11:04:35.146Z,1.44
2022-12-14T11:07:07.602Z,1.49
2022-12-14T11:09:37.360Z,1.53
2022-12-14T11:12:09.730Z,1.57
2022-12-14T11:14:38.526Z,1.59
2022-12-14T11:17:06.979Z,1.63
2022-12-14T11:19:37.538Z,1.68
2022-12-14T11:22:17.145Z,1.71
2022-12-14T11:24:51.390Z,1.72
2022-12-14T11:27:22.958Z,1.75
2022-12-14T11:29:52.488Z,1.75
2022-12-14T11:32:24.717Z,1.75
2022-12-14T11:34:59.343Z,1.75
2022-12-14T11:37:30.245Z,1.78
2022-12-14T11:40:01.237Z,1.79
2022-12-14T11:42:31.446Z,1.80
2022-12-14T11:45:30.365Z,1.80
2022-12-14T11:48:22.308Z,1.76
2022-12-14T11:50:54.643Z,1.81
2022-12-14T11:53:24.353Z,1.83
2022-12-14T11:55:58.666Z,1.86
2022-12-14T11:58:33.637Z,1.88
2022-12-14T12:01:06.544Z,1.89
2022-12-14T12:03:39.342Z,1.92
2022-12-14T12:06:12.470Z,1.94
2022-12-14T12:08:42.520Z,1.94
2022-12-14T12:11:19.438Z,1.97
2022-12-14T12:13:53.881Z,2.00
2022-12-14T12:16:24.413Z,2.01
2022-12-14T12:18:57.584Z,2.03
2022-12-14T12:21:30.419Z,2.04
2022-12-14T12:24:04.192Z,2.06
2022-12-14T12:26:38.031Z,2.11
2022-12-14T12:29:15.099Z,2.11
2022-12-14T12:31:49.912Z,2.14
2022-12-14T12:34:24.262Z,2.17
2022-12-14T12:37:24.878Z,2.19
2022-12-14T12:39:47.008Z,2.21
2022-12-14T12:42:29.419Z,2.21
2022-12-14T12:45:06.735Z,2.22
2022-12-14T12:47:47.219Z,2.25
2022-12-14T12:50:19.652Z,2.27
2022-12-14T12:53:02.432Z,2.30
2022-12-14T12:55:36.764Z,2.30
2022-12-14T12:58:09.792Z,2.32
2022-12-14T13:00:41.662Z,2.34
2022-12-14T13:03:18.579Z,2.37
2022-12-14T13:05:49.017Z,2.39
2022-12-14T13:08:25.306Z,2.41
2022-12-14T13:11:24.580Z,2.43
2022-12-14T13:13:49.452Z,2.39
2022-12-14T13:16:27.350Z,2.39
2022-12-14T13:19:25.479Z,2.42
2022-12-14T13:21:54.582Z,2.39
2022-12-14T13:24:25.048Z,2.40
2022-12-14T13:27:35.027Z,2.40
2022-12-14T13:30:22.232Z,2.37
2022-12-14T13:33:17.185Z,2.37
2022-12-14T13:36:33.651Z,2.38
2022-12-14T13:39:46.534Z,2.39
2022-12-14T13:42:32.061Z,2.38
2022-12-14T13:45:02.692Z,2.41
2022-12-14T13:47:40.059Z,2.43
2022-12-14T13:50:35.784Z,2.43
2022-12-14T13:53:12.738Z,2.44
2022-12-14T13:55:51.803Z,2.45
2022-12-14T13:58:23.875Z,2.45
2022-12-14T14:01:02.498Z,2.47
2022-12-14T14:04:04.921Z,2.50
2022-12-14T14:06:41.216Z,2.51
2022-12-14T14:10:01.087Z,2.53
2022-12-14T14:12:43.300Z,2.55
2022-12-14T14:15:34.366Z,2.57
2022-12-14T14:18:24.984Z,2.61
2022-12-14T14:20:58.858Z,2.64
2022-12-14T14:23:57.810Z,2.67
2022-12-14T14:26:29.579Z,2.66
2022-12-14T14:29:26.398Z,2.67
2022-12-14T14:32:00.839Z,2.68
2022-12-14T14:34:50.134Z,2.71
2022-12-14T14:37:30.534Z,2.72
2022-12-14T14:40:43.788Z,2.73
2022-12-14T14:43:26.691Z,2.73
2022-12-14T14:45:57.929Z,2.72
2022-12-14T14:48:34.557Z,2.71
2022-12-14T14:51:08.272Z,2.75
2022-12-14T14:53:37.855Z,2.76
2022-12-14T14:56:29.107Z,2.79
2022-12-14T14:59:41.241Z,2.80
2022-12-14T15:02:35.350Z,2.80
2022-12-14T15:05:33.140Z,2.82
2022-12-14T15:07:56.712Z,2.84
2022-12-14T15:10:33.824Z,2.88
2022-12-14T15:13:08.810Z,2.92
2022-12-14T15:15:42.944Z,2.94
2022-12-14T15:18:22.698Z,2.96
2022-12-14T15:20:59.260Z,2.99
2022-12-14T15:23:35.754Z,3.02
2022-12-14T15:26:16.525Z,3.05
2022-12-14T15:28:51.617Z,3.08
2022-12-14T15:31:29.239Z,3.10
2022-12-14T15:33:58.932Z,3.13
2022-12-14T15:36:32.062Z,3.16
2022-12-14T15:39:00.960Z,3.16
2022-12-14T15:41:33.241Z,3.20
2022-12-14T15:44:03.187Z,3.21
2022-12-14T15:46:34.433Z,3.23
2022-12-14T15:49:05.580Z,3.26
2022-12-14T15:51:37.242Z,3.27
2022-12-14T15:54:08.723Z,3.27
2022-12-14T15:56:40.676Z,3.28
2022-12-14T15:59:18.255Z,3.28
2022-12-14T16:01:58.958Z,3.29
2022-12-14T16:04:32.851Z,3.29
2022-12-14T16:07:09.011Z,3.31
2022-12-14T16:09:41.527Z,3.33
2022-12-14T16:12:19.276Z,3.34
2022-12-14T16:14:54.270Z,3.35
2022-12-14T16:17:27.822Z,3.38
2022-12-14T16:19:59.941Z,3.39
2022-12-14T16:22:30.259Z,3.40
2022-12-14T16:25:19.251Z,3.42
2022-12-14T16:27:50.831Z,3.44
2022-12-14T16:30:30.709Z,3.44
2022-12-14T16:33:18.835Z,3.45
2022-12-14T16:35:49.177Z,3.46
2022-12-14T16:38:19.078Z,3.47
2022-12-14T16:40:57.215Z,3.48
2022-12-14T16:43:30.973Z,3.49
2022-12-14T16:46:16.128Z,3.51
2022-12-14T16:49:01.960Z,3.53
2022-12-14T16:52:06.874Z,3.52
2022-12-14T16:54:29.582Z,3.51
2022-12-14T16:57:02.866Z,3.50
2022-12-14T16:59:44.035Z,3.50
2022-12-14T17:02:33.553Z,3.50
2022-12-14T17:05:07.253Z,3.51
2022-12-14T17:07:38.593Z,3.51
2022-12-14T17:10:15.213Z,3.51
2022-12-14T17:12:45.232Z,3.52
2022-12-14T17:15:15.210Z,3.52
2022-12-14T17:17:49.528Z,3.53
2022-12-14T17:20:24.230Z,3.52
2022-12-14T17:22:52.986Z,3.55
2022-12-14T17:25:22.130Z,3.55
2022-12-14T17:27:50.415Z,3.57
2022-12-14T17:30:21.590Z,3.58
2022-12-14T17:32:52.216Z,3.58
2022-12-14T17:35:24.889Z,3.58
2022-12-14T17:37:53.424Z,3.59
2022-12-14T17:40:21.783Z,3.60
2022-12-14T17:42:54.889Z,3.60
2022-12-14T17:45:26.239Z,3.60
2022-12-14T17:47:56.591Z,3.61
2022-12-14T17:50:26.058Z,3.62
2022-12-14T17:52:54.342Z,3.61
2022-12-14T17:55:26.769Z,3.62
2022-12-14T17:57:55.859Z,3.61
2022-12-14T18:00:44.531Z,3.63
2022-12-14T18:03:17.004Z,3.63
2022-12-14T18:05:49.378Z,3.63
2022-12-14T18:08:17.919Z,3.64
2022-12-14T18:10:47.050Z,3.64
2022-12-14T18:13:15.530Z,3.64
2022-12-14T18:15:49.915Z,3.62
2022-12-14T18:18:21.344Z,3.62
2022-12-14T18:20:54.032Z,3.62
2022-12-14T18:23:22.968Z,3.62
2022-12-14T18:25:53.901Z,3.63
2022-12-14T18:28:22.817Z,3.64
2022-12-14T18:30:55.467Z,3.64
2022-12-14T18:33:27.337Z,3.64
2022-12-14T18:35:57.771Z,3.64
2022-12-14T18:38:26.936Z,3.65
2022-12-14T18:40:58.608Z,3.65
2022-12-14T18:43:29.518Z,3.66
2022-12-14T18:45:59.244Z,3.68
2022-12-14T18:48:29.044Z,3.68
2022-12-14T18:50:57.574Z,3.69
2022-12-14T18:53:27.039Z,3.69
2022-12-14T18:55:55.624Z,3.70
2022-12-14T18:58:26.800Z,3.70
2022-12-14T19:00:58.475Z,3.69
2022-12-14T19:03:31.078Z,3.70
2022-12-14T19:06:42.372Z,3.68
2022-12-14T19:08:57.066Z,3.66
2022-12-14T19:11:31.848Z,3.66
2022-12-14T19:14:00.720Z,3.67
2022-12-14T19:16:29.598Z,3.68
2022-12-14T19:18:59.716Z,3.66
2022-12-14T19:21:29.421Z,3.67
2022-12-14T19:23:59.763Z,3.69
2022-12-14T19:26:29.247Z,3.69
2022-12-14T19:28:58.540Z,3.68
2022-12-14T19:31:27.189Z,3.68
2022-12-14T19:33:55.857Z,3.69
2022-12-14T19:36:26.172Z,3.68
2022-12-14T19:38:54.455Z,3.69
2022-12-14T19:41:22.746Z,3.69
2022-12-14T19:43:51.103Z,3.69
2022-12-14T19:46:19.388Z,3.70
2022-12-14T19:48:47.832Z,3.70
2022-12-14T19:51:21.507Z,3.71
2022-12-14T19:53:52.867Z,3.71
2022-12-14T19:56:21.121Z,3.72
2022-12-14T19:58:49.472Z,3.71
2022-12-14T20:01:19.148Z,3.72
2022-12-14T20:03:49.038Z,3.73
2022-12-14T20:06:17.574Z,3.74
2022-12-14T20:08:49.338Z,3.74
2022-12-14T20:11:20.413Z,3.75
2022-12-14T20:13:54.697Z,3.75
2022-12-14T20:16:25.863Z,3.74
2022-12-14T20:18:55.143Z,3.74
2022-12-14T20:21:23.727Z,3.73
2022-12-14T20:23:52.110Z,3.73
2022-12-14T20:26:23.650Z,3.71
2022-12-14T20:28:55.114Z,3.68
2022-12-14T20:31:24.478Z,3.69
2022-12-14T20:33:53.250Z,3.68
2022-12-14T20:36:22.564Z,3.66
2022-12-14T20:38:57.670Z,3.64
2022-12-14T20:41:27.451Z,3.64
2022-12-14T20:43:56.001Z,3.62
2022-12-14T20:46:31.523Z,3.61
2022-12-14T20:49:02.123Z,3.61
2022-12-14T20:51:31.515Z,3.62
2022-12-14T20:54:00.261Z,3.61
2022-12-14T20:56:30.084Z,3.60
2022-12-14T20:58:58.832Z,3.60
2022-12-14T21:01:27.581Z,3.61
2022-12-14T21:03:57.673Z,3.61
2022-12-14T21:06:26.379Z,3.62
2022-12-14T21:09:05.281Z,3.59
2022-12-14T21:11:54.877Z,3.59
2022-12-14T21:14:25.712Z,3.60
2022-12-14T21:16:54.325Z,3.59
2022-12-14T21:19:22.935Z,3.56
2022-12-14T21:21:54.029Z,3.59
2022-12-14T21:25:01.221Z,3.56
2022-12-14T21:27:19.677Z,3.52
2022-12-14T21:29:48.336Z,3.50
2022-12-14T21:32:18.991Z,3.48
2022-12-14T21:34:48.363Z,3.47
2022-12-14T21:37:16.942Z,3.46
2022-12-14T21:39:51.890Z,3.47
2022-12-14T21:42:21.955Z,3.46
2022-12-14T21:44:52.528Z,3.45
2022-12-14T21:47:24.012Z,3.46
2022-12-14T21:49:52.213Z,3.46
2022-12-14T21:52:24.025Z,3.46
2022-12-14T21:54:52.331Z,3.45
2022-12-14T21:57:41.527Z,3.44
2022-12-14T22:00:12.534Z,3.41
2022-12-14T22:02:42.596Z,3.42
2022-12-14T22:05:11.686Z,3.40
2022-12-14T22:07:40.098Z,3.39
2022-12-14T22:10:09.161Z,3.39
2022-12-14T22:12:38.756Z,3.39
2022-12-14T22:15:08.308Z,3.38
2022-12-14T22:17:36.592Z,3.37
2022-12-14T22:20:05.720Z,3.39
2022-12-14T22:22:34.596Z,3.38
2022-12-14T22:25:03.516Z,3.38
2022-12-14T22:27:31.704Z,3.37
2022-12-14T22:30:01.378Z,3.36
2022-12-14T22:32:29.714Z,3.35
2022-12-14T22:34:57.992Z,3.32
2022-12-14T22:37:26.226Z,3.32
2022-12-14T22:39:54.525Z,3.32
2022-12-14T22:42:22.748Z,3.30
2022-12-14T22:44:51.012Z,3.30
2022-12-14T22:47:20.693Z,3.29
2022-12-14T22:49:48.986Z,3.28
2022-12-14T22:52:22.933Z,3.28
2022-12-14T22:54:52.647Z,3.27
2022-12-14T22:57:23.003Z,3.25
2022-12-14T22:59:57.204Z,3.23
2022-12-14T23:02:26.976Z,3.23
2022-12-14T23:04:55.402Z,3.22
2022-12-14T23:07:23.755Z,3.22
2022-12-14T23:10:09.488Z,3.22
2022-12-14T23:12:55.005Z,3.20
2022-12-14T23:15:41.031Z,3.20
2022-12-14T23:18:28.091Z,3.18
2022-12-14T23:21:14.280Z,3.16
2022-12-14T23:24:03.198Z,3.15
2022-12-14T23:26:49.627Z,3.13
2022-12-14T23:29:35.679Z,3.11
2022-12-14T23:32:21.355Z,3.11
2022-12-14T23:35:08.569Z,3.10
2022-12-14T23:37:54.151Z,3.08
2022-12-14T23:40:39.812Z,3.09
2022-12-14T23:43:29.281Z,3.07
2022-12-14T23:46:15.354Z,3.06
2022-12-14T23:49:01.340Z,3.06
2022-12-14T23:51:48.365Z,3.05
2022-12-14T23:54:34.444Z,3.06
2022-12-14T23:57:22.755Z,3.07
